Time;durP1;ratioP1;P1;durP2;ratioP2;P2;SDS_P1;SDS_P2;PMS_P1;PMS_P2;Temp;Humidity;BMP_temperature;BMP_pressure;BME280_temperature;BME280_humidity;BME280_pressure;Samples;Min_cycle;Max_cycle;Signal;HPM_P1;HPM_P2
2023/02/11 19:29:48;;;;;;;34.50;18.35;;;;;;;2.99;100.00;100963.59;5089986;27;20352;-85
2023/02/11 19:32:15;;;;;;;31.27;17.27;;;;;;;3.11;100.00;100964.69;5069934;28;20052;-79
2023/02/11 19:34:42;;;;;;;30.75;14.68;;;;;;;3.13;100.00;100942.16;5069721;28;20106;-80
2023/02/11 19:37:12;;;;;;;32.97;16.48;;;;;;;3.27;100.00;100968.19;5067597;28;20049;-80
2023/02/11 19:39:39;;;;;;;31.63;17.17;;;;;;;3.25;100.00;100947.72;5069204;28;20052;-80
2023/02/11 19:42:06;;;;;;;28.40;15.30;;;;;;;3.27;100.00;100938.59;5054536;28;20068;-80
2023/02/11 19:44:32;;;;;;;35.90;18.48;;;;;;;3.27;100.00;100932.38;5064649;28;20055;-80
2023/02/11 19:47:00;;;;;;;29.23;15.23;;;;;;;3.42;100.00;100958.31;5064818;28;20432;-80
2023/02/11 19:49:28;;;;;;;28.15;14.90;;;;;;;3.50;100.00;100950.63;5066368;28;20055;-80
2023/02/11 19:51:57;;;;;;;26.25;14.98;;;;;;;3.42;100.00;100952.94;5064977;28;20052;-80
2023/02/11 19:54:25;;;;;;;40.78;21.70;;;;;;;3.39;100.00;100952.25;5062833;28;20056;-80
2023/02/11 19:56:52;;;;;;;35.55;17.40;;;;;;;3.49;100.00;100967.72;5064929;28;20506;-80
2023/02/11 19:59:19;;;;;;;33.60;16.83;;;;;;;3.41;100.00;100951.19;5058791;28;20421;-81
2023/02/11 20:01:47;;;;;;;28.95;17.02;;;;;;;3.33;100.00;100943.59;5064583;28;20037;-80
2023/02/11 20:04:16;;;;;;;31.65;15.60;;;;;;;3.53;100.00;100973.78;5062456;28;20458;-79
2023/02/11 20:06:43;;;;;;;25.08;14.63;;;;;;;3.44;100.00;100968.97;5061155;28;20044;-80
2023/02/11 20:09:13;;;;;;;30.63;15.73;;;;;;;3.42;100.00;100966.38;5062604;28;20041;-80
2023/02/11 20:11:41;;;;;;;31.45;15.82;;;;;;;3.54;100.00;100968.28;5062913;28;20045;-79
2023/02/11 20:14:11;;;;;;;36.70;20.08;;;;;;;3.49;100.00;100981.19;5065539;28;20155;-80
2023/02/11 20:16:38;;;;;;;29.80;17.60;;;;;;;3.33;100.00;100957.06;5058197;28;20047;-79
2023/02/11 20:19:05;;;;;;;30.80;17.33;;;;;;;3.44;100.00;100966.28;5049603;28;20054;-79
2023/02/11 20:21:33;;;;;;;31.30;16.45;;;;;;;3.38;100.00;100951.38;5058338;28;20320;-80
2023/02/11 20:23:59;;;;;;;28.92;15.77;;;;;;;3.34;100.00;100953.41;5051942;28;20036;-80
2023/02/11 20:26:27;;;;;;;26.92;15.43;;;;;;;3.35;100.00;100968.56;5056919;28;20048;-79
2023/02/11 20:28:55;;;;;;;25.73;14.88;;;;;;;3.28;100.00;100966.34;5078509;28;20044;-79
2023/02/11 20:31:23;;;;;;;28.23;15.18;;;;;;;3.14;100.00;100943.84;5069232;28;20041;-80
2023/02/11 20:33:49;;;;;;;27.55;14.80;;;;;;;3.28;100.00;100961.84;5059114;28;20213;-80
2023/02/11 20:36:18;;;;;;;27.73;15.40;;;;;;;3.18;100.00;100952.63;5054536;28;20045;-80
2023/02/11 20:38:48;;;;;;;28.27;14.75;;;;;;;3.32;100.00;100973.28;5055101;28;20767;-79
2023/02/11 20:41:24;;;;;;;27.23;15.50;;;;;;;3.23;100.00;100969.31;5044125;28;20049;-80
2023/02/11 20:43:53;;;;;;;29.20;15.73;;;;;;;3.21;100.00;100962.28;5038338;28;20176;-80
2023/02/11 20:46:21;;;;;;;32.60;17.70;;;;;;;3.16;100.00;100963.47;5044321;28;20051;-79
2023/02/11 20:48:49;;;;;;;33.63;16.60;;;;;;;3.16;100.00;100959.88;5042084;28;20495;-79
2023/02/11 20:51:19;;;;;;;25.92;15.45;;;;;;;3.31;100.00;100991.25;5040278;28;20041;-79
2023/02/11 20:53:49;;;;;;;30.05;15.55;;;;;;;3.14;100.00;100972.56;5043924;28;20237;-80
2023/02/11 20:56:19;;;;;;;25.48;13.65;;;;;;;3.11;100.00;100965.53;5042081;28;20476;-79
2023/02/11 20:58:45;;;;;;;29.05;14.02;;;;;;;3.16;100.00;100976.00;5042940;28;20419;-80
2023/02/11 21:01:17;;;;;;;32.90;14.43;;;;;;;3.22;100.00;100977.47;5041827;28;20049;-80
2023/02/11 21:03:44;;;;;;;28.17;14.68;;;;;;;3.29;100.00;100995.81;5041612;28;20388;-80
2023/02/11 21:06:11;;;;;;;25.23;13.68;;;;;;;3.09;100.00;100977.38;5043563;28;20052;-80
2023/02/11 21:08:38;;;;;;;29.02;15.80;;;;;;;3.07;100.00;100981.94;5046971;28;20048;-79
2023/02/11 21:11:07;;;;;;;31.17;17.30;;;;;;;3.04;100.00;100980.34;5047747;28;20053;-80
2023/02/11 21:13:37;;;;;;;32.78;16.92;;;;;;;3.19;100.00;100990.16;5044195;28;20059;-79
2023/02/11 21:16:06;;;;;;;31.88;15.10;;;;;;;3.14;100.00;100980.63;5049367;28;20045;-79
2023/02/11 21:18:33;;;;;;;37.38;18.45;;;;;;;3.24;100.00;100997.06;5045932;28;20049;-80
2023/02/11 21:20:59;;;;;;;30.00;17.13;;;;;;;3.23;100.00;100989.97;5047082;28;20695;-79
2023/02/11 21:23:27;;;;;;;35.20;18.85;;;;;;;3.21;100.00;100986.50;5042872;28;20048;-79
2023/02/11 21:25:54;;;;;;;33.92;18.20;;;;;;;3.15;100.00;100991.28;5041268;28;20567;-79
2023/02/11 21:28:25;;;;;;;30.77;16.90;;;;;;;3.04;100.00;100982.13;5045133;28;20049;-80
2023/02/11 21:30:51;;;;;;;32.95;16.13;;;;;;;3.11;100.00;100988.88;5045643;28;20656;-80
2023/02/11 21:33:18;;;;;;;32.05;16.27;;;;;;;3.21;100.00;101003.50;5044793;28;20052;-79
2023/02/11 21:35:46;;;;;;;29.55;14.60;;;;;;;3.10;100.00;100996.09;5041624;28;20055;-80
2023/02/11 21:38:14;;;;;;;30.58;14.77;;;;;;;3.14;100.00;101008.34;5045533;28;20045;-80
2023/02/11 21:40:41;;;;;;;22.45;14.07;;;;;;;3.09;100.00;100993.50;5052453;28;20049;-80
2023/02/11 21:43:14;;;;;;;24.83;12.02;;;;;;;2.98;100.00;100986.94;5050109;28;20048;-80
2023/02/11 21:45:44;;;;;;;31.67;12.43;;;;;;;3.08;100.00;100999.81;5049241;28;20087;-79
2023/02/11 21:48:15;;;;;;;26.13;10.55;;;;;;;3.01;100.00;101007.34;5048849;28;20067;-80
2023/02/11 21:50:44;;;;;;;25.80;12.13;;;;;;;2.82;100.00;100988.78;5050148;28;20045;-79
2023/02/11 21:53:12;;;;;;;40.50;16.58;;;;;;;2.99;100.00;101017.34;5041920;28;20048;-79
2023/02/11 21:55:40;;;;;;;61.25;27.27;;;;;;;3.00;100.00;101011.88;5037327;28;20147;-80
2023/02/11 21:58:07;;;;;;;31.08;14.85;;;;;;;2.88;100.00;100988.44;5046732;28;20045;-79
2023/02/11 22:00:34;;;;;;;31.65;15.68;;;;;;;2.89;100.00;100981.22;5052823;28;20051;-79
2023/02/11 22:03:02;;;;;;;34.40;16.98;;;;;;;3.00;100.00;101005.66;5059018;28;20226;-79
2023/02/11 22:05:28;;;;;;;41.83;19.98;;;;;;;3.04;100.00;101009.91;5041115;28;20052;-79
2023/02/11 22:07:55;;;;;;;41.15;19.27;;;;;;;3.04;100.00;101014.38;5039032;28;20055;-79
2023/02/11 22:10:21;;;;;;;40.13;18.67;;;;;;;3.10;100.00;101016.69;5040407;28;20044;-80
2023/02/11 22:12:48;;;;;;;35.00;18.30;;;;;;;2.99;100.00;101007.44;5042668;28;20048;-79
2023/02/11 22:15:15;;;;;;;38.58;19.52;;;;;;;3.17;100.00;101018.06;5045529;28;20055;-80
2023/02/11 22:17:41;;;;;;;41.40;21.08;;;;;;;3.05;100.00;101011.59;5040211;28;20061;-80
2023/02/11 22:20:10;;;;;;;40.78;19.80;;;;;;;3.01;100.00;101019.00;5038785;28;20056;-80
2023/02/11 22:22:37;;;;;;;37.47;17.67;;;;;;;2.95;100.00;101008.63;5044049;28;20068;-80
2023/02/11 22:25:03;;;;;;;43.15;18.13;;;;;;;3.01;100.00;101027.06;5037998;28;20786;-79
2023/02/11 22:27:30;;;;;;;63.47;28.63;;;;;;;2.92;100.00;101021.34;5045165;28;20460;-79
2023/02/11 22:29:56;;;;;;;37.97;17.83;;;;;;;2.86;100.00;101010.97;5040175;28;20049;-80
2023/02/11 22:32:23;;;;;;;34.50;16.98;;;;;;;2.93;100.00;101023.09;5045472;28;20083;-80
2023/02/11 22:34:50;;;;;;;35.60;16.52;;;;;;;3.00;100.00;101028.00;5039725;28;20072;-80
2023/02/11 22:37:17;;;;;;;35.67;17.55;;;;;;;2.96;100.00;101022.91;5045481;28;20047;-80
2023/02/11 22:39:44;;;;;;;25.52;15.60;;;;;;;2.93;100.00;101006.97;5047867;28;20439;-80
2023/02/11 22:42:10;;;;;;;28.40;16.23;;;;;;;2.97;100.00;100998.63;5044797;28;20541;-80
2023/02/11 22:44:37;;;;;;;31.27;15.65;;;;;;;3.03;100.00;101013.53;5046227;28;20053;-80
2023/02/11 22:47:04;;;;;;;37.95;17.60;;;;;;;2.86;100.00;100992.16;5039834;28;20408;-80
2023/02/11 22:49:31;;;;;;;29.30;16.92;;;;;;;2.98;100.00;101007.53;5049069;28;20058;-80
2023/02/11 22:51:57;;;;;;;31.55;15.85;;;;;;;3.07;100.00;101009.72;5034363;28;20123;-80
2023/02/11 22:54:26;;;;;;;29.25;14.77;;;;;;;3.00;100.00;101005.66;5036714;28;20590;-80
2023/02/11 22:56:53;;;;;;;31.50;16.83;;;;;;;2.98;100.00;101003.06;5042647;28;20488;-80
2023/02/11 22:59:20;;;;;;;33.33;17.00;;;;;;;2.91;100.00;101007.06;5040935;28;20128;-80
2023/02/11 23:01:47;;;;;;;32.80;16.67;;;;;;;2.78;100.00;100995.28;5045019;28;20057;-79
2023/02/11 23:04:15;;;;;;;31.85;16.98;;;;;;;2.76;100.00;100999.91;5043652;28;20044;-80
2023/02/11 23:06:42;;;;;;;35.85;16.83;;;;;;;2.83;100.00;100998.56;5038864;28;20389;-80
2023/02/11 23:09:11;;;;;;;42.10;17.77;;;;;;;2.92;100.00;101013.28;5041243;28;20041;-80
2023/02/11 23:11:39;;;;;;;34.55;17.13;;;;;;;2.78;100.00;100988.09;5042878;28;20041;-80
2023/02/11 23:14:07;;;;;;;36.50;18.75;;;;;;;2.91;100.00;101003.50;5042536;28;20049;-79
2023/02/11 23:16:34;;;;;;;37.85;19.02;;;;;;;2.91;100.00;101015.13;5043193;28;20092;-79
2023/02/11 23:19:03;;;;;;;31.63;18.27;;;;;;;2.79;100.00;100983.59;5043262;28;20396;-79
2023/02/11 23:21:31;;;;;;;42.20;19.77;;;;;;;2.94;100.00;101016.75;5042572;28;20040;-79
2023/02/11 23:23:59;;;;;;;35.30;17.95;;;;;;;2.95;100.00;101021.16;5030248;28;20060;-80
2023/02/11 23:26:25;;;;;;;39.90;19.08;;;;;;;2.92;100.00;101018.66;5035960;28;20041;-79
2023/02/11 23:28:54;;;;;;;35.45;17.48;;;;;;;2.82;100.00;101005.75;5036695;28;20080;-79
2023/02/11 23:31:22;;;;;;;39.10;18.90;;;;;;;3.11;100.00;101031.88;5040912;28;20045;-80
2023/02/11 23:33:49;;;;;;;35.97;18.15;;;;;;;3.01;100.00;101013.63;5032871;28;20041;-79
2023/02/11 23:36:18;;;;;;;37.47;18.45;;;;;;;3.07;100.00;101035.69;5038413;28;20515;-79
2023/02/11 23:38:45;;;;;;;42.33;18.63;;;;;;;3.03;100.00;101031.44;5034565;28;20071;-80
2023/02/11 23:41:13;;;;;;;36.90;19.05;;;;;;;2.90;100.00;101013.38;5038690;28;20041;-79
2023/02/11 23:43:39;;;;;;;41.13;19.38;;;;;;;2.91;100.00;101022.31;5039217;28;20522;-79
2023/02/11 23:46:08;;;;;;;40.95;19.88;;;;;;;2.77;100.00;101015.94;5044571;28;20049;-80
2023/02/11 23:48:36;;;;;;;50.03;21.95;;;;;;;2.94;100.00;101046.31;5048047;28;20049;-79
2023/02/11 23:51:03;;;;;;;48.03;19.77;;;;;;;2.85;100.00;101023.53;5045481;28;20135;-80
2023/02/11 23:53:30;;;;;;;43.92;22.20;;;;;;;2.95;100.00;101043.53;5042359;28;20446;-79
2023/02/11 23:55:57;;;;;;;47.83;21.17;;;;;;;2.78;100.00;101024.84;5045894;28;20049;-79
2023/02/11 23:58:23;;;;;;;48.03;21.85;;;;;;;2.86;100.00;101029.75;5040734;28;20048;-79
